Terminal Aerodrome Forecast
Issued by NWS

Home | Current Version | Previous Version | Text Only | Print | Product List | Glossary Off
Versions: 1 2 3 4 5 6 7 8 9 10 11 12 13 14 15 16

584
FTUS43 KUNR 180523
TAFGCC
TAF
KGCC 180523Z 1806/1906 17010KT P6SM BKN070
     FM181100 22018G30KT P6SM BKN150=

USA.gov is the U.S. government's official web portal to all federal, state and local government web resources and services.